createdAt,value
2018-08-11T00:00:28.380Z,15.65
2018-08-11T00:01:28.409Z,15.54
2018-08-11T00:02:28.529Z,15.63
2018-08-11T00:03:28.619Z,15.63
2018-08-11T00:04:28.551Z,15.66
2018-08-11T00:05:28.566Z,15.59
2018-08-11T00:06:28.453Z,15.72
2018-08-11T00:07:28.589Z,15.60
2018-08-11T00:08:28.636Z,15.62
2018-08-11T00:09:28.607Z,15.44
2018-08-11T00:10:28.505Z,15.48
2018-08-11T00:11:28.499Z,15.43
2018-08-11T00:12:28.646Z,15.45
2018-08-11T00:13:28.731Z,15.25
2018-08-11T00:14:28.538Z,15.26
2018-08-11T00:15:28.566Z,15.14
2018-08-11T00:16:28.556Z,15.07
2018-08-11T00:17:28.581Z,14.96
2018-08-11T00:18:28.785Z,14.99
2018-08-11T00:19:28.605Z,14.89
2018-08-11T00:20:28.732Z,14.93
2018-08-11T00:21:28.630Z,14.82
2018-08-11T00:22:28.631Z,14.74
2018-08-11T00:23:28.865Z,14.74
2018-08-11T00:24:28.664Z,14.55
2018-08-11T00:25:28.675Z,14.49
2018-08-11T00:26:28.677Z,14.44
2018-08-11T00:27:28.701Z,14.37
2018-08-11T00:28:29.025Z,14.30
2018-08-11T00:29:28.851Z,14.22
2018-08-11T00:30:28.735Z,14.22
2018-08-11T00:31:28.867Z,14.23
2018-08-11T00:32:28.870Z,14.25
2018-08-11T00:33:29.089Z,14.23
2018-08-11T00:34:28.776Z,14.18
2018-08-11T00:35:28.910Z,14.18
2018-08-11T00:36:28.965Z,14.20
2018-08-11T00:37:28.816Z,14.18
2018-08-11T00:38:29.020Z,14.15
2018-08-11T00:39:28.817Z,14.12
2018-08-11T00:40:28.838Z,14.13
2018-08-11T00:41:28.851Z,14.12
2018-08-11T00:42:28.864Z,14.28
2018-08-11T00:43:29.198Z,14.28
2018-08-11T00:44:29.007Z,14.08
2018-08-11T00:45:28.898Z,14.00
2018-08-11T00:46:29.032Z,14.11
2018-08-11T00:47:29.044Z,14.04
2018-08-11T00:48:29.131Z,14.00
2018-08-11T00:49:28.961Z,14.13
2018-08-11T00:50:28.947Z,14.13
2018-08-11T00:51:29.088Z,14.18
2018-08-11T00:52:29.098Z,14.15
2018-08-11T00:53:29.180Z,14.19
2018-08-11T00:54:28.984Z,14.07
2018-08-11T00:55:29.015Z,14.03
2018-08-11T00:56:29.017Z,14.03
2018-08-11T00:57:29.151Z,14.03
2018-08-11T00:58:29.246Z,14.12
2018-08-11T00:59:29.042Z,14.23
2018-08-11T01:00:29.185Z,14.12
2018-08-11T01:01:29.192Z,14.11
2018-08-11T01:02:29.143Z,14.00
2018-08-11T01:03:29.093Z,14.00
2018-08-11T01:04:29.432Z,13.97
2018-08-11T01:05:29.243Z,13.97
2018-08-11T01:06:29.244Z,14.12
2018-08-11T01:07:29.133Z,14.05
2018-08-11T01:08:29.272Z,14.07
2018-08-11T01:09:29.484Z,14.11
2018-08-11T01:10:29.169Z,14.03
2018-08-11T01:11:29.192Z,13.95
2018-08-11T01:12:29.193Z,13.98
2018-08-11T01:13:29.328Z,14.01
2018-08-11T01:14:29.414Z,13.97
2018-08-11T01:15:29.212Z,14.04
2018-08-11T01:16:29.357Z,14.03
2018-08-11T01:17:29.369Z,13.89
2018-08-11T01:18:29.260Z,13.85
2018-08-11T01:19:29.590Z,13.73
2018-08-11T01:20:29.321Z,13.79
2018-08-11T01:21:29.290Z,13.75
2018-08-11T01:22:29.426Z,13.67
2018-08-11T01:23:29.311Z,13.65
2018-08-11T01:24:29.743Z,13.62
2018-08-11T01:25:29.325Z,13.60
2018-08-11T01:26:29.353Z,13.71
2018-08-11T01:27:29.480Z,13.70
2018-08-11T01:28:29.487Z,13.67
2018-08-11T01:29:29.618Z,13.61
2018-08-11T01:30:29.377Z,13.62
2018-08-11T01:31:29.392Z,13.68
2018-08-11T01:32:29.416Z,13.76
2018-08-11T01:33:29.453Z,13.82
2018-08-11T01:34:29.634Z,13.85
2018-08-11T01:35:29.441Z,13.86
2018-08-11T01:36:29.573Z,13.79
2018-08-11T01:37:29.459Z,13.61
2018-08-11T01:38:29.480Z,13.80
2018-08-11T01:39:29.729Z,13.75
2018-08-11T01:40:29.484Z,13.83
2018-08-11T01:41:29.509Z,13.79
2018-08-11T01:42:29.505Z,13.67
2018-08-11T01:43:29.521Z,13.58
2018-08-11T01:44:29.737Z,13.75
2018-08-11T01:45:29.547Z,13.83
2018-08-11T01:46:29.554Z,13.91
2018-08-11T01:47:29.563Z,13.95
2018-08-11T01:48:29.697Z,13.93
2018-08-11T01:49:29.797Z,13.80
2018-08-11T01:50:29.601Z,13.85
2018-08-11T01:51:29.603Z,13.79
2018-08-11T01:52:29.613Z,13.71
2018-08-11T01:53:29.753Z,13.76
2018-08-11T01:54:29.848Z,13.79
2018-08-11T01:55:29.647Z,13.68
2018-08-11T01:56:29.664Z,13.62
2018-08-11T01:57:29.671Z,13.55
2018-08-11T01:58:29.808Z,13.57
2018-08-11T01:59:30.016Z,13.50
2018-08-11T02:00:29.708Z,13.57
2018-08-11T02:01:29.840Z,13.50
2018-08-11T02:02:29.849Z,13.54
2018-08-11T02:03:29.738Z,13.55
2018-08-11T02:04:29.941Z,13.47
2018-08-11T02:05:29.756Z,13.36
2018-08-11T02:06:29.764Z,13.30
2018-08-11T02:07:29.778Z,13.28
2018-08-11T02:09:30.126Z,13.31
2018-08-11T02:10:29.805Z,13.30
2018-08-11T02:11:29.944Z,13.30
2018-08-11T02:12:29.822Z,13.23
2018-08-11T02:13:29.963Z,13.27
2018-08-11T02:14:31.101Z,13.36
2018-08-11T02:15:29.858Z,13.33
2018-08-11T02:16:29.877Z,13.30
2018-08-11T02:17:30.005Z,13.21
2018-08-11T02:18:29.886Z,13.24
2018-08-11T02:19:30.162Z,13.33
2018-08-11T02:20:30.040Z,13.24
2018-08-11T02:21:30.045Z,13.37
2018-08-11T02:22:30.053Z,13.30
2018-08-11T02:23:29.941Z,13.33
2018-08-11T02:24:30.074Z,13.23
2018-08-11T02:25:30.341Z,13.21
2018-08-11T02:26:29.985Z,13.23
2018-08-11T02:27:29.973Z,13.19
2018-08-11T02:28:30.123Z,13.20
2018-08-11T02:29:30.006Z,13.17
2018-08-11T02:30:30.257Z,13.02
2018-08-11T02:31:30.014Z,13.05
2018-08-11T02:32:30.158Z,12.98
2018-08-11T02:33:30.176Z,12.90
2018-08-11T02:34:30.264Z,12.86
2018-08-11T02:35:30.212Z,12.87
2018-08-11T02:36:30.118Z,12.88
2018-08-11T02:37:30.129Z,12.98
2018-08-11T02:38:30.105Z,13.06
2018-08-11T02:39:30.113Z,12.98
2018-08-11T02:40:30.495Z,12.95
2018-08-11T02:41:30.134Z,12.98
2018-08-11T02:42:30.135Z,12.95
2018-08-11T02:43:30.270Z,12.98
2018-08-11T02:44:30.281Z,12.86
2018-08-11T02:45:30.366Z,12.84
2018-08-11T02:46:30.194Z,12.75
2018-08-11T02:47:30.191Z,12.75
2018-08-11T02:48:30.329Z,12.76
2018-08-11T02:49:30.215Z,12.76
2018-08-11T02:50:30.458Z,12.81
2018-08-11T02:51:30.217Z,12.70
2018-08-11T02:52:30.238Z,12.78
2018-08-11T02:53:30.378Z,12.75
2018-08-11T02:54:30.393Z,12.73
2018-08-11T02:55:30.648Z,12.76
2018-08-11T02:56:30.282Z,12.68
2018-08-11T02:57:30.283Z,12.66
2018-08-11T02:58:30.429Z,12.66
2018-08-11T02:59:30.438Z,12.61
2018-08-11T03:00:30.694Z,12.61
2018-08-11T03:01:30.333Z,12.58
2018-08-11T03:02:30.530Z,12.61
2018-08-11T03:03:30.353Z,12.61
2018-08-11T03:04:30.361Z,12.63
2018-08-11T03:05:30.626Z,12.68
2018-08-11T03:06:30.375Z,12.69
2018-08-11T03:07:30.388Z,12.61
2018-08-11T03:08:30.421Z,12.68
2018-08-11T03:09:30.412Z,12.58
2018-08-11T03:10:30.620Z,12.47
2018-08-11T03:11:30.484Z,12.57
2018-08-11T03:12:30.566Z,12.58
2018-08-11T03:13:30.573Z,12.54
2018-08-11T03:14:30.471Z,12.57
2018-08-11T03:15:30.797Z,12.61
2018-08-11T03:16:30.484Z,12.58
2018-08-11T03:17:30.490Z,12.45
2018-08-11T03:18:30.497Z,12.54
2018-08-11T03:19:30.519Z,12.48
2018-08-11T03:20:30.770Z,12.50
2018-08-11T03:21:30.660Z,12.45
2018-08-11T03:22:30.664Z,12.45
2018-08-11T03:23:30.678Z,12.44
2018-08-11T03:24:30.572Z,12.43
2018-08-11T03:25:30.948Z,12.36
2018-08-11T03:26:30.591Z,12.40
2018-08-11T03:27:30.719Z,12.47
2018-08-11T03:28:30.726Z,12.51
2018-08-11T03:29:30.737Z,12.39
2018-08-11T03:30:31.053Z,12.35
2018-08-11T03:31:30.760Z,12.21
2018-08-11T03:32:30.703Z,12.28
2018-08-11T03:33:30.774Z,12.36
2018-08-11T03:34:30.664Z,12.35
2018-08-11T03:35:30.673Z,12.37
2018-08-11T03:36:30.927Z,12.37
2018-08-11T03:37:30.813Z,12.44
2018-08-11T03:38:30.699Z,12.50
2018-08-11T03:39:30.836Z,12.53
2018-08-11T03:40:30.725Z,12.45
2018-08-11T03:41:31.103Z,12.36
2018-08-11T03:42:30.867Z,12.35
2018-08-11T03:43:30.770Z,12.25
2018-08-11T03:44:30.886Z,12.33
2018-08-11T03:45:30.892Z,12.26
2018-08-11T03:46:31.099Z,12.20
2018-08-11T03:47:30.788Z,12.20
2018-08-11T03:48:30.810Z,12.12
2018-08-11T03:49:30.819Z,11.99
2018-08-11T03:50:30.829Z,11.89
2018-08-11T03:51:31.125Z,11.93
2018-08-11T03:52:30.926Z,11.89
2018-08-11T03:53:30.851Z,11.86
2018-08-11T03:54:30.982Z,11.88
2018-08-11T03:55:30.858Z,11.91
2018-08-11T03:56:31.130Z,11.88
2018-08-11T03:57:31.008Z,11.91
2018-08-11T03:58:30.888Z,11.81
2018-08-11T03:59:30.906Z,11.65
2018-08-11T04:00:30.920Z,11.67
2018-08-11T04:01:31.266Z,11.78
2018-08-11T04:02:30.931Z,11.74
2018-08-11T04:03:31.068Z,11.83
2018-08-11T04:04:30.947Z,11.80
2018-08-11T04:05:30.973Z,11.80
2018-08-11T04:06:31.028Z,11.97
2018-08-11T04:07:31.178Z,12.07
2018-08-11T04:08:30.990Z,12.00
2018-08-11T04:09:31.127Z,11.91
2018-08-11T04:10:31.007Z,11.96
2018-08-11T04:11:31.148Z,12.00
2018-08-11T04:12:31.047Z,11.91
2018-08-11T04:13:31.296Z,11.86
2018-08-11T04:14:31.053Z,12.00
2018-08-11T04:15:31.179Z,11.88
2018-08-11T04:16:31.072Z,11.81
2018-08-11T04:17:31.076Z,11.81
2018-08-11T04:18:31.091Z,11.80
2018-08-11T04:19:31.300Z,11.80
2018-08-11T04:20:31.236Z,11.80
2018-08-11T04:21:31.244Z,11.80
2018-08-11T04:22:31.131Z,11.76
2018-08-11T04:23:31.142Z,11.68
2018-08-11T04:24:31.352Z,11.67
2018-08-11T04:25:31.284Z,11.67
2018-08-11T04:26:31.164Z,11.67
2018-08-11T04:27:31.295Z,11.62
2018-08-11T04:28:31.310Z,11.63
2018-08-11T04:29:31.477Z,11.60
2018-08-11T04:30:31.329Z,11.56
2018-08-11T04:31:31.220Z,11.53
2018-08-11T04:32:31.223Z,11.52
2018-08-11T04:33:31.361Z,11.49
2018-08-11T04:34:31.501Z,11.51
2018-08-11T04:35:31.288Z,11.55
2018-08-11T04:36:31.264Z,11.52
2018-08-11T04:37:31.267Z,11.56
2018-08-11T04:38:31.284Z,11.65
2018-08-11T04:39:31.544Z,11.62
2018-08-11T04:40:31.295Z,11.70
2018-08-11T04:41:31.304Z,11.67
2018-08-11T04:42:31.315Z,11.73
2018-08-11T04:43:31.327Z,11.77
2018-08-11T04:44:31.628Z,11.70
2018-08-11T04:45:31.337Z,11.68
2018-08-11T04:46:31.474Z,11.68
2018-08-11T04:47:31.490Z,11.67
2018-08-11T04:48:31.376Z,11.62
2018-08-11T04:49:31.636Z,11.62
2018-08-11T04:50:31.512Z,11.63
2018-08-11T04:51:31.404Z,11.53
2018-08-11T04:52:31.447Z,11.55
2018-08-11T04:53:31.430Z,11.58
2018-08-11T04:54:31.729Z,11.62
2018-08-11T04:55:31.441Z,11.56
2018-08-11T04:56:31.447Z,11.53
2018-08-11T04:57:31.501Z,11.55
2018-08-11T04:58:31.458Z,11.44
2018-08-11T04:59:31.476Z,11.43
2018-08-11T05:00:31.860Z,11.48
2018-08-11T05:01:31.492Z,11.45
2018-08-11T05:02:31.636Z,11.49
2018-08-11T05:03:31.634Z,11.48
2018-08-11T05:04:31.529Z,11.48
2018-08-11T05:05:31.537Z,11.43
2018-08-11T05:06:31.781Z,11.40
2018-08-11T05:07:31.679Z,11.38
2018-08-11T05:08:31.596Z,11.26
2018-08-11T05:09:31.571Z,11.35
2018-08-11T05:10:31.584Z,11.26
2018-08-11T05:11:31.597Z,11.40
2018-08-11T05:12:31.976Z,11.31
2018-08-11T05:13:31.650Z,11.31
2018-08-11T05:14:31.617Z,11.33
2018-08-11T05:15:31.666Z,11.20
2018-08-11T05:16:31.758Z,11.35
2018-08-11T05:17:31.647Z,11.30
2018-08-11T05:18:32.029Z,11.18
2018-08-11T05:19:31.818Z,11.27
2018-08-11T05:20:31.678Z,11.18
2018-08-11T05:21:31.683Z,11.23
2018-08-11T05:22:31.817Z,11.16
2018-08-11T05:23:31.694Z,11.10
2018-08-11T05:24:32.007Z,11.16
2018-08-11T05:25:31.709Z,11.10
2018-08-11T05:26:31.743Z,11.05
2018-08-11T05:27:31.737Z,10.97
2018-08-11T05:28:31.871Z,11.13
2018-08-11T05:29:32.179Z,11.02
2018-08-11T05:30:31.794Z,11.02
2018-08-11T05:31:31.780Z,10.98
2018-08-11T05:32:31.901Z,10.94
2018-08-11T05:33:31.912Z,11.01
2018-08-11T05:34:32.174Z,10.87
2018-08-11T05:35:31.934Z,10.95
2018-08-11T05:36:31.808Z,10.95
2018-08-11T05:37:31.950Z,10.90
2018-08-11T05:38:31.837Z,10.83
2018-08-11T05:39:32.091Z,10.83
2018-08-11T05:40:31.976Z,10.86
2018-08-11T05:41:31.882Z,10.77
2018-08-11T05:42:31.995Z,10.79
2018-08-11T05:43:31.890Z,10.80
2018-08-11T05:44:32.141Z,10.72
2018-08-11T05:45:32.019Z,10.82
2018-08-11T05:46:32.035Z,10.87
2018-08-11T05:47:32.041Z,10.86
2018-08-11T05:48:32.050Z,10.80
2018-08-11T05:49:32.177Z,10.94
2018-08-11T05:50:31.944Z,10.92
2018-08-11T05:51:32.074Z,10.89
2018-08-11T05:52:31.967Z,10.90
2018-08-11T05:53:31.964Z,10.89
2018-08-11T05:54:32.400Z,10.89
2018-08-11T05:55:32.111Z,10.86
2018-08-11T05:56:32.007Z,10.94
2018-08-11T05:57:32.010Z,10.94
2018-08-11T05:58:32.012Z,11.00
2018-08-11T05:59:32.311Z,10.94
2018-08-11T06:00:32.045Z,10.98
2018-08-11T06:01:32.052Z,11.04
2018-08-11T06:02:32.053Z,10.98
2018-08-11T06:03:32.056Z,11.05
2018-08-11T06:04:32.071Z,11.08
2018-08-11T06:05:32.340Z,11.18
2018-08-11T06:06:32.086Z,11.16
2018-08-11T06:07:32.216Z,11.16
2018-08-11T06:08:32.105Z,11.18
2018-08-11T06:09:32.123Z,11.20
2018-08-11T06:10:32.480Z,11.25
2018-08-11T06:11:32.127Z,11.12
2018-08-11T06:12:32.263Z,11.16
2018-08-11T06:13:32.164Z,11.16
2018-08-11T06:14:32.159Z,11.10
2018-08-11T06:15:32.475Z,11.20
2018-08-11T06:16:32.212Z,11.08
2018-08-11T06:17:32.308Z,11.08
2018-08-11T06:18:32.316Z,11.10
2018-08-11T06:19:32.198Z,11.07
2018-08-11T06:20:32.582Z,11.04
2018-08-11T06:21:32.349Z,10.98
2018-08-11T06:22:32.221Z,10.95
2018-08-11T06:23:32.360Z,10.95
2018-08-11T06:24:32.368Z,11.01
2018-08-11T06:25:32.626Z,11.01
2018-08-11T06:26:32.260Z,10.95
2018-08-11T06:27:32.401Z,10.95
2018-08-11T06:28:32.318Z,10.98
2018-08-11T06:29:32.301Z,11.07
2018-08-11T06:30:32.582Z,11.04
2018-08-11T06:31:32.530Z,11.12
2018-08-11T06:32:32.331Z,11.02
2018-08-11T06:33:32.354Z,10.95
2018-08-11T06:34:32.329Z,11.05
2018-08-11T06:35:32.626Z,11.04
2018-08-11T06:36:32.349Z,11.01
2018-08-11T06:37:32.483Z,10.98
2018-08-11T06:38:32.367Z,10.90
2018-08-11T06:39:32.379Z,10.90
2018-08-11T06:40:32.844Z,10.95
2018-08-11T06:41:32.441Z,10.94
2018-08-11T06:42:32.419Z,11.02
2018-08-11T06:43:32.429Z,10.95
2018-08-11T06:44:32.416Z,11.01
2018-08-11T06:45:32.812Z,10.98
2018-08-11T06:46:32.573Z,10.98
2018-08-11T06:47:32.573Z,10.94
2018-08-11T06:48:32.463Z,10.86
2018-08-11T06:49:32.465Z,10.92
2018-08-11T06:50:32.780Z,10.98
2018-08-11T06:51:32.492Z,10.95
2018-08-11T06:52:32.494Z,10.95
2018-08-11T06:53:32.491Z,10.98
2018-08-11T06:54:32.506Z,11.16
2018-08-11T06:55:32.801Z,11.18
2018-08-11T06:56:32.566Z,11.08
2018-08-11T06:57:32.533Z,11.19
2018-08-11T06:58:32.536Z,11.15
2018-08-11T06:59:32.546Z,11.18
2018-08-11T07:00:32.939Z,11.20
2018-08-11T07:01:32.571Z,11.18
2018-08-11T07:02:32.577Z,11.12
2018-08-11T07:03:32.719Z,11.00
2018-08-11T07:04:32.721Z,11.01
2018-08-11T07:05:32.932Z,10.98
2018-08-11T07:06:32.835Z,10.86
2018-08-11T07:07:32.624Z,10.80
2018-08-11T07:08:32.765Z,10.75
2018-08-11T07:09:32.646Z,10.62
2018-08-11T07:10:32.650Z,10.65
2018-08-11T07:11:32.904Z,10.65
2018-08-11T07:12:32.667Z,10.61
2018-08-11T07:13:32.673Z,10.59
2018-08-11T07:14:32.692Z,10.65
2018-08-11T07:15:32.700Z,10.61
2018-08-11T07:16:32.705Z,10.53
2018-08-11T07:17:33.026Z,10.55
2018-08-11T07:18:32.730Z,10.55
2018-08-11T07:19:32.729Z,10.55
2018-08-11T07:20:32.734Z,10.51
2018-08-11T07:21:32.877Z,10.49
2018-08-11T07:22:32.754Z,10.43
2018-08-11T07:23:33.144Z,10.55
2018-08-11T07:24:32.903Z,10.58
2018-08-11T07:25:32.913Z,10.64
2018-08-11T07:26:32.985Z,10.58
2018-08-11T07:27:32.929Z,10.62
2018-08-11T07:28:32.938Z,10.62
2018-08-11T07:29:33.123Z,10.62
2018-08-11T07:30:32.823Z,10.64
2018-08-11T07:31:32.958Z,10.61
2018-08-11T07:32:32.860Z,10.58
2018-08-11T07:33:32.979Z,10.53
2018-08-11T07:34:33.166Z,10.45
2018-08-11T07:35:32.866Z,10.53
2018-08-11T07:36:33.007Z,10.48
2018-08-11T07:37:33.018Z,10.45
2018-08-11T07:38:32.936Z,10.43
2018-08-11T07:39:33.165Z,10.33
2018-08-11T07:40:33.038Z,10.43
2018-08-11T07:41:33.046Z,10.33
2018-08-11T07:42:33.052Z,10.39
2018-08-11T07:43:33.069Z,10.36
2018-08-11T07:44:33.193Z,10.39
2018-08-11T07:45:33.081Z,10.25
2018-08-11T07:46:33.089Z,10.30
2018-08-11T07:47:33.023Z,10.15
2018-08-11T07:48:33.039Z,10.12
2018-08-11T07:49:33.364Z,10.03
2018-08-11T07:50:32.998Z,10.02
2018-08-11T07:51:33.011Z,9.97
2018-08-11T07:52:33.010Z,9.92
2018-08-11T07:53:33.024Z,9.91
2018-08-11T07:54:33.330Z,9.94
2018-08-11T07:55:33.037Z,9.91
2018-08-11T07:56:33.054Z,9.82
2018-08-11T07:57:33.184Z,9.84
2018-08-11T07:58:33.066Z,9.91
2018-08-11T07:59:33.398Z,9.74
2018-08-11T08:00:33.079Z,9.72
2018-08-11T08:01:33.096Z,9.72
2018-08-11T08:02:33.093Z,9.66
2018-08-11T08:03:33.107Z,9.64
2018-08-11T08:04:33.244Z,9.66
2018-08-11T08:05:33.375Z,9.64
2018-08-11T08:06:33.130Z,9.64
2018-08-11T08:07:33.141Z,9.66
2018-08-11T08:08:33.274Z,9.59
2018-08-11T08:09:33.156Z,9.70
2018-08-11T08:10:33.292Z,9.67
2018-08-11T08:11:33.550Z,9.62
2018-08-11T08:12:33.187Z,9.67
2018-08-11T08:13:33.336Z,9.64
2018-08-11T08:14:33.238Z,9.67
2018-08-11T08:15:33.212Z,9.70
2018-08-11T08:16:33.512Z,9.64
2018-08-11T08:17:33.216Z,9.62
2018-08-11T08:18:33.235Z,9.67
2018-08-11T08:19:33.364Z,9.69
2018-08-11T08:20:33.378Z,9.63
2018-08-11T08:21:33.513Z,9.67
2018-08-11T08:22:33.282Z,9.69
2018-08-11T08:23:33.281Z,9.73
2018-08-11T08:24:33.289Z,9.73
2018-08-11T08:25:33.298Z,9.72
2018-08-11T08:26:33.738Z,9.77
2018-08-11T08:27:33.312Z,9.80
2018-08-11T08:28:33.314Z,9.72
2018-08-11T08:29:33.326Z,9.64
2018-08-11T08:30:33.330Z,9.63
2018-08-11T08:31:33.536Z,9.62
2018-08-11T08:32:33.473Z,9.77
2018-08-11T08:33:33.364Z,9.66
2018-08-11T08:34:33.372Z,9.67
2018-08-11T08:35:33.385Z,9.66
2018-08-11T08:36:33.680Z,9.63
2018-08-11T08:37:33.401Z,9.64
2018-08-11T08:38:33.398Z,9.63
2018-08-11T08:39:33.529Z,9.62
2018-08-11T08:40:33.408Z,9.59
2018-08-11T08:41:33.754Z,9.44
2018-08-11T08:42:33.553Z,9.47
2018-08-11T08:43:33.440Z,9.56
2018-08-11T08:44:33.576Z,9.44
2018-08-11T08:45:33.451Z,9.37
2018-08-11T08:46:33.467Z,9.42
2018-08-11T08:47:33.835Z,9.49
2018-08-11T08:48:33.486Z,9.42
2018-08-11T08:49:33.476Z,9.44
2018-08-11T08:50:33.505Z,9.40
2018-08-11T08:51:33.547Z,9.47
2018-08-11T08:52:33.510Z,9.39
2018-08-11T08:53:33.778Z,9.54
2018-08-11T08:54:33.650Z,9.47
2018-08-11T08:55:33.535Z,9.45
2018-08-11T08:56:33.673Z,9.45
2018-08-11T08:57:33.682Z,9.55
2018-08-11T08:58:33.559Z,9.39
2018-08-11T08:59:33.825Z,9.36
2018-08-11T09:00:33.599Z,9.34
2018-08-11T09:01:33.591Z,9.31
2018-08-11T09:02:33.599Z,9.33
2018-08-11T09:03:33.609Z,9.26
2018-08-11T09:04:33.731Z,9.15
2018-08-11T09:05:33.877Z,9.16
2018-08-11T09:06:33.674Z,9.09
2018-08-11T09:07:33.625Z,9.21
2018-08-11T09:08:33.647Z,9.16
2018-08-11T09:09:33.645Z,9.26
2018-08-11T09:10:33.862Z,9.30
2018-08-11T09:11:33.789Z,9.27
2018-08-11T09:12:33.800Z,9.26
2018-08-11T09:13:33.683Z,9.22
2018-08-11T09:14:33.678Z,9.21
2018-08-11T09:15:34.069Z,9.24
2018-08-11T09:16:33.831Z,9.19
2018-08-11T09:17:33.717Z,9.12
2018-08-11T09:18:33.846Z,9.13
2018-08-11T09:19:33.740Z,9.13
2018-08-11T09:20:34.108Z,9.16
2018-08-11T09:21:33.755Z,9.11
2018-08-11T09:22:33.787Z,9.15
2018-08-11T09:23:33.766Z,9.19
2018-08-11T09:24:33.765Z,9.16
2018-08-11T09:25:33.978Z,9.15
2018-08-11T09:26:33.782Z,9.12
2018-08-11T09:27:33.918Z,9.11
2018-08-11T09:28:33.797Z,9.21
2018-08-11T09:29:33.802Z,9.21
2018-08-11T09:30:34.014Z,9.21
2018-08-11T09:31:33.819Z,9.21
2018-08-11T09:32:33.833Z,9.19
2018-08-11T09:33:33.883Z,9.13
2018-08-11T09:34:33.970Z,9.18
2018-08-11T09:35:33.984Z,9.12
2018-08-11T09:36:34.284Z,9.21
2018-08-11T09:37:33.871Z,9.18
2018-08-11T09:38:34.011Z,9.22
2018-08-11T09:39:34.008Z,9.09
2018-08-11T09:40:33.894Z,9.13
2018-08-11T09:41:33.911Z,9.12
2018-08-11T09:42:34.160Z,9.13
2018-08-11T09:43:34.042Z,9.13
2018-08-11T09:44:33.924Z,9.22
2018-08-11T09:45:34.093Z,9.16
2018-08-11T09:46:33.937Z,9.21
2018-08-11T09:47:34.245Z,9.29
2018-08-11T09:48:34.081Z,9.36
2018-08-11T09:49:33.969Z,9.39
2018-08-11T09:50:33.968Z,9.59
2018-08-11T09:51:34.105Z,9.67
2018-08-11T09:52:34.244Z,9.76
2018-08-11T09:53:34.006Z,9.91
2018-08-11T09:54:34.001Z,10.03
2018-08-11T09:55:34.021Z,10.06
2018-08-11T09:56:34.148Z,10.30
2018-08-11T09:57:34.271Z,10.41
2018-08-11T09:58:34.192Z,10.48
2018-08-11T09:59:34.170Z,10.61
2018-08-11T10:00:34.186Z,10.82
2018-08-11T10:01:34.058Z,10.95
2018-08-11T10:02:34.328Z,11.10
2018-08-11T10:03:34.212Z,11.26
2018-08-11T10:04:34.099Z,11.38
2018-08-11T10:05:34.108Z,11.52
2018-08-11T10:06:34.122Z,11.65
2018-08-11T10:07:34.424Z,11.86
2018-08-11T10:08:34.130Z,11.97
2018-08-11T10:09:34.141Z,12.15
2018-08-11T10:10:34.321Z,12.33
2018-08-11T10:11:34.164Z,12.37
2018-08-11T10:12:34.430Z,12.48
2018-08-11T10:13:34.189Z,12.55
2018-08-11T10:14:34.199Z,12.68
2018-08-11T10:15:34.335Z,12.72
2018-08-11T10:16:34.216Z,12.78
2018-08-11T10:17:34.600Z,12.93
2018-08-11T10:18:34.461Z,12.95
2018-08-11T10:19:34.372Z,13.16
2018-08-11T10:20:34.260Z,13.33
2018-08-11T10:21:34.272Z,13.57
2018-08-11T10:22:34.484Z,13.57
2018-08-11T10:23:34.301Z,13.57
2018-08-11T10:24:34.434Z,13.58
2018-08-11T10:25:34.355Z,13.78
2018-08-11T10:26:34.329Z,13.82
2018-08-11T10:27:34.584Z,13.85
2018-08-11T10:28:34.483Z,14.03
2018-08-11T10:29:34.363Z,14.22
2018-08-11T10:30:34.388Z,14.31
2018-08-11T10:31:34.394Z,14.25
2018-08-11T10:32:34.735Z,14.45
2018-08-11T10:33:34.550Z,14.63
2018-08-11T10:34:34.435Z,14.73
2018-08-11T10:35:34.578Z,14.89
2018-08-11T10:37:34.741Z,15.26
2018-08-11T10:38:34.528Z,15.36
2018-08-11T10:39:34.508Z,15.55
2018-08-11T10:40:34.513Z,15.55
2018-08-11T10:41:34.522Z,15.25
2018-08-11T10:42:34.556Z,15.39
2018-08-11T10:43:34.933Z,14.97
2018-08-11T10:44:34.580Z,14.93
2018-08-11T10:45:34.717Z,14.92
2018-08-11T10:46:34.600Z,15.27
2018-08-11T10:47:34.618Z,15.55
2018-08-11T10:48:34.829Z,15.90
2018-08-11T10:49:34.638Z,16.29
2018-08-11T10:50:34.789Z,16.43
2018-08-11T10:51:34.661Z,16.58
2018-08-11T10:52:34.815Z,16.89
2018-08-11T10:53:34.705Z,17.02
2018-08-11T10:54:34.935Z,17.12
2018-08-11T10:55:34.859Z,17.20
2018-08-11T10:56:34.877Z,17.14
2018-08-11T10:57:34.773Z,17.05
2018-08-11T10:58:34.906Z,17.04
2018-08-11T10:59:34.780Z,17.30
2018-08-11T11:00:35.006Z,17.46
2018-08-11T11:01:34.955Z,17.71
2018-08-11T11:02:34.841Z,17.98
2018-08-11T11:03:34.850Z,18.03
2018-08-11T11:04:34.872Z,18.12
2018-08-11T11:05:35.110Z,18.39
2018-08-11T11:06:34.961Z,18.34
2018-08-11T11:07:34.930Z,18.33
2018-08-11T11:08:34.940Z,18.05
2018-08-11T11:09:35.086Z,17.79
2018-08-11T11:10:35.269Z,17.71
2018-08-11T11:11:34.991Z,17.49
2018-08-11T11:12:35.002Z,17.63
2018-08-11T11:13:35.016Z,17.42
2018-08-11T11:14:35.157Z,17.60
2018-08-11T11:15:35.378Z,17.73
2018-08-11T11:16:35.198Z,17.65
2018-08-11T11:17:35.211Z,17.72
2018-08-11T11:18:35.103Z,17.66
2018-08-11T11:19:35.245Z,17.42
2018-08-11T11:20:35.508Z,17.46
2018-08-11T11:21:35.273Z,17.76
2018-08-11T11:22:35.170Z,17.56
2018-08-11T11:23:35.202Z,17.10
2018-08-11T11:24:35.329Z,17.47
2018-08-11T11:25:35.472Z,17.68
2018-08-11T11:26:35.239Z,18.00
2018-08-11T11:27:35.248Z,18.27
2018-08-11T11:28:35.394Z,17.91
2018-08-11T11:29:35.408Z,17.68
2018-08-11T11:30:35.498Z,17.60
2018-08-11T11:31:35.323Z,17.76
2018-08-11T11:32:35.329Z,17.93
2018-08-11T11:33:35.353Z,18.09
2018-08-11T11:34:35.388Z,18.11
2018-08-11T11:35:35.589Z,17.80
2018-08-11T11:36:35.523Z,17.32
2018-08-11T11:37:35.448Z,17.28
2018-08-11T11:38:35.433Z,17.19
2018-08-11T11:39:35.492Z,17.24
2018-08-11T11:40:35.717Z,17.09
2018-08-11T11:41:35.482Z,16.99
2018-08-11T11:42:35.488Z,17.13
2018-08-11T11:43:35.517Z,17.27
2018-08-11T11:44:35.650Z,17.52
2018-08-11T11:45:35.745Z,17.95
2018-08-11T11:46:35.690Z,18.02
2018-08-11T11:47:35.574Z,18.36
2018-08-11T11:48:35.718Z,18.13
2018-08-11T11:49:35.605Z,18.02
2018-08-11T11:50:35.836Z,17.90
2018-08-11T11:51:35.688Z,17.86
2018-08-11T11:52:35.780Z,17.82
2018-08-11T11:53:35.679Z,17.31
2018-08-11T11:54:35.811Z,17.38
2018-08-11T11:55:36.009Z,16.86
2018-08-11T11:56:35.842Z,16.94
2018-08-11T11:57:35.860Z,17.13
2018-08-11T11:58:35.755Z,17.20
2018-08-11T11:59:35.894Z,17.24
2018-08-11T12:00:35.830Z,17.69
2018-08-11T12:01:36.135Z,17.90
2018-08-11T12:02:35.827Z,17.88
2018-08-11T12:03:35.842Z,18.00
2018-08-11T12:04:35.858Z,18.12
2018-08-11T12:05:35.867Z,18.09
2018-08-11T12:06:36.064Z,17.72
2018-08-11T12:07:35.887Z,17.65
2018-08-11T12:08:35.898Z,17.65
2018-08-11T12:09:35.943Z,17.42
2018-08-11T12:10:36.057Z,17.42
2018-08-11T12:11:36.149Z,17.34
2018-08-11T12:12:36.087Z,17.20
2018-08-11T12:13:36.042Z,17.24
2018-08-11T12:14:36.119Z,17.20
2018-08-11T12:15:36.011Z,17.07
2018-08-11T12:16:36.276Z,17.01
2018-08-11T12:17:36.036Z,17.07
2018-08-11T12:18:36.064Z,16.91
2018-08-11T12:19:36.107Z,16.87
2018-08-11T12:20:36.083Z,16.80
2018-08-11T12:21:36.303Z,16.76
2018-08-11T12:22:36.110Z,16.50
2018-08-11T12:23:36.249Z,16.31
2018-08-11T12:24:36.146Z,16.28
2018-08-11T12:25:36.281Z,16.16
2018-08-11T12:26:36.542Z,16.13
2018-08-11T12:27:36.182Z,16.18
2018-08-11T12:28:36.238Z,16.13
2018-08-11T12:29:36.218Z,16.16
2018-08-11T12:30:36.226Z,16.02
2018-08-11T12:31:36.438Z,15.94
2018-08-11T12:32:36.259Z,15.78
2018-08-11T12:33:36.395Z,15.76
2018-08-11T12:34:36.284Z,15.76
2018-08-11T12:35:36.296Z,15.76
2018-08-11T12:36:36.456Z,15.80
2018-08-11T12:37:36.450Z,15.87
2018-08-11T12:38:36.344Z,15.85
2018-08-11T12:39:36.382Z,15.96
2018-08-11T12:40:36.407Z,16.25
2018-08-11T12:41:36.628Z,16.57
2018-08-11T12:42:36.514Z,16.94
2018-08-11T12:43:36.413Z,17.27
2018-08-11T12:44:36.548Z,17.69
2018-08-11T12:45:36.523Z,17.82
2018-08-11T12:46:36.744Z,17.80
2018-08-11T12:47:36.464Z,17.39
2018-08-11T12:48:36.594Z,17.30
2018-08-11T12:49:36.610Z,17.28
2018-08-11T12:50:36.497Z,17.46
2018-08-11T12:51:36.641Z,17.38
2018-08-11T12:52:36.848Z,17.35
2018-08-11T12:53:36.663Z,17.20
2018-08-11T12:54:36.548Z,17.22
2018-08-11T12:55:36.566Z,17.19
2018-08-11T12:56:36.579Z,17.10
2018-08-11T12:57:36.796Z,16.99
2018-08-11T12:58:36.737Z,17.05